createdAt,value
2018-08-20T00:00:18.508Z,19.80
2018-08-20T00:02:45.751Z,19.83
2018-08-20T00:05:12.981Z,19.83
2018-08-20T00:07:40.243Z,19.76
2018-08-20T00:10:09.158Z,19.69
2018-08-20T00:12:36.604Z,19.68
2018-08-20T00:15:04.347Z,19.67
2018-08-20T00:17:33.396Z,19.66
2018-08-20T00:22:50.594Z,19.67
2018-08-20T00:25:18.906Z,19.66
2018-08-20T00:27:46.905Z,19.73
2018-08-20T00:30:15.793Z,19.69
2018-08-20T00:32:44.194Z,19.66
2018-08-20T00:35:13.177Z,19.63
2018-08-20T00:37:43.309Z,19.58
2018-08-20T00:40:10.571Z,19.55
2018-08-20T00:42:37.838Z,19.54
2018-08-20T00:45:05.246Z,19.49
2018-08-20T00:47:32.483Z,19.42
2018-08-20T00:49:59.683Z,19.39
2018-08-20T00:52:26.967Z,19.37
2018-08-20T00:54:54.187Z,19.39
2018-08-20T00:57:21.435Z,19.39
2018-08-20T00:59:48.659Z,19.35
2018-08-20T01:02:20.458Z,19.36
2018-08-20T01:04:47.694Z,19.39
2018-08-20T01:07:14.919Z,19.41
2018-08-20T01:09:42.155Z,19.40
2018-08-20T01:12:09.394Z,19.37
2018-08-20T01:14:36.666Z,19.32
2018-08-20T01:17:04.186Z,19.29
2018-08-20T01:19:31.446Z,19.26
2018-08-20T01:21:58.693Z,19.26
2018-08-20T01:24:25.915Z,19.28
2018-08-20T01:26:53.138Z,19.28
2018-08-20T01:29:20.388Z,19.26
2018-08-20T01:31:47.590Z,19.24
2018-08-20T01:34:14.847Z,19.20
2018-08-20T01:36:43.148Z,19.19
2018-08-20T01:39:10.378Z,19.19
2018-08-20T01:41:37.587Z,19.19
2018-08-20T01:44:04.824Z,19.19
2018-08-20T01:46:32.030Z,19.15
2018-08-20T01:48:59.261Z,19.09
2018-08-20T01:51:26.496Z,19.05
2018-08-20T01:53:53.708Z,19.02
2018-08-20T01:56:21.107Z,18.94
2018-08-20T01:58:48.347Z,18.91
2018-08-20T02:01:15.537Z,18.92
2018-08-20T02:03:42.786Z,18.94
2018-08-20T02:06:10.032Z,18.91
2018-08-20T02:08:37.318Z,18.88
2018-08-20T02:11:04.719Z,18.88
2018-08-20T02:13:31.978Z,18.83
2018-08-20T02:15:59.207Z,18.82
2018-08-20T02:18:26.469Z,18.74
2018-08-20T02:20:53.694Z,18.70
2018-08-20T02:23:20.979Z,18.66
2018-08-20T02:25:48.210Z,18.61
2018-08-20T02:28:15.458Z,18.55
2018-08-20T02:30:42.682Z,18.49
2018-08-20T02:33:09.915Z,18.44
2018-08-20T02:35:37.201Z,18.32
2018-08-20T02:38:04.686Z,18.23
2018-08-20T02:40:32.811Z,18.19
2018-08-20T02:43:00.063Z,18.11
2018-08-20T02:45:27.366Z,18.09
2018-08-20T02:47:54.599Z,17.97
2018-08-20T02:50:21.848Z,17.89
2018-08-20T02:52:49.122Z,17.84
2018-08-20T02:55:16.394Z,17.80
2018-08-20T02:57:43.603Z,17.74
2018-08-20T03:00:12.620Z,17.77
2018-08-20T03:02:39.967Z,17.82
2018-08-20T03:05:07.763Z,17.86
2018-08-20T03:07:35.003Z,17.84
2018-08-20T03:10:02.451Z,17.75
2018-08-20T03:12:29.685Z,17.59
2018-08-20T03:14:57.065Z,17.49
2018-08-20T03:17:25.696Z,17.42
2018-08-20T03:19:54.629Z,17.35
2018-08-20T03:22:23.109Z,17.24
2018-08-20T03:24:50.359Z,17.22
2018-08-20T03:27:17.595Z,17.23
2018-08-20T03:29:44.842Z,17.30
2018-08-20T03:32:12.100Z,17.37
2018-08-20T03:34:39.395Z,17.43
2018-08-20T03:37:06.971Z,17.51
2018-08-20T03:39:34.193Z,17.51
2018-08-20T03:42:01.746Z,17.49
2018-08-20T03:44:28.986Z,17.43
2018-08-20T03:46:56.211Z,17.43
2018-08-20T03:49:23.453Z,17.47
2018-08-20T03:51:50.687Z,17.51
2018-08-20T03:54:17.963Z,17.52
2018-08-20T03:56:45.163Z,17.53
2018-08-20T03:59:28.456Z,17.53
2018-08-20T04:01:55.678Z,17.54
2018-08-20T04:04:22.898Z,17.53
2018-08-20T04:06:50.134Z,17.53
2018-08-20T04:09:17.348Z,17.53
2018-08-20T04:11:44.594Z,17.54
2018-08-20T04:14:11.811Z,17.58
2018-08-20T04:16:39.053Z,17.60
2018-08-20T04:19:07.514Z,17.57
2018-08-20T04:21:34.817Z,17.44
2018-08-20T04:24:02.112Z,17.42
2018-08-20T04:26:29.442Z,17.40
2018-08-20T04:28:56.651Z,17.33
2018-08-20T04:31:24.479Z,17.30
2018-08-20T04:33:51.975Z,17.32
2018-08-20T04:36:19.239Z,17.34
2018-08-20T04:38:47.256Z,17.25
2018-08-20T04:41:14.534Z,17.17
2018-08-20T04:43:41.811Z,17.14
2018-08-20T04:46:09.110Z,17.18
2018-08-20T04:48:37.103Z,17.25
2018-08-20T04:51:04.427Z,17.31
2018-08-20T04:53:31.640Z,17.36
2018-08-20T04:55:58.886Z,17.45
2018-08-20T04:58:26.102Z,17.57
2018-08-20T05:00:53.349Z,17.71
2018-08-20T05:03:20.596Z,17.87
2018-08-20T05:05:47.843Z,18.03
2018-08-20T05:08:15.091Z,18.20
2018-08-20T05:10:42.338Z,18.34
2018-08-20T05:13:09.563Z,18.47
2018-08-20T05:15:36.795Z,18.57
2018-08-20T05:18:04.194Z,18.70
2018-08-20T05:20:31.439Z,18.83
2018-08-20T05:22:58.970Z,18.97
2018-08-20T05:25:26.294Z,19.17
2018-08-20T05:27:53.535Z,19.39
2018-08-20T05:30:20.787Z,19.58
2018-08-20T05:32:48.063Z,19.78
2018-08-20T05:35:15.298Z,19.99
2018-08-20T05:37:42.559Z,20.13
2018-08-20T05:40:09.800Z,20.31
2018-08-20T05:42:37.069Z,20.50
2018-08-20T05:45:06.027Z,20.73
2018-08-20T05:47:33.248Z,20.94
2018-08-20T05:50:00.503Z,21.08
2018-08-20T05:52:27.852Z,21.15
2018-08-20T05:54:55.089Z,21.31
2018-08-20T05:57:22.350Z,21.46
2018-08-20T05:59:49.590Z,21.65
2018-08-20T06:02:16.974Z,21.72
2018-08-20T06:04:44.252Z,21.86
2018-08-20T06:07:12.690Z,22.15
2018-08-20T06:09:39.922Z,22.14
2018-08-20T06:12:07.211Z,22.20
2018-08-20T06:14:34.478Z,22.44
2018-08-20T06:17:01.864Z,22.62
2018-08-20T06:19:29.137Z,22.52
2018-08-20T06:21:56.491Z,22.28
2018-08-20T06:24:23.716Z,22.44
2018-08-20T06:26:50.966Z,22.35
2018-08-20T06:29:18.265Z,22.12
2018-08-20T06:31:45.515Z,22.14
2018-08-20T06:34:12.755Z,22.25
2018-08-20T06:36:40.032Z,22.36
2018-08-20T06:39:08.190Z,22.32
2018-08-20T06:41:35.524Z,22.32
2018-08-20T06:44:02.906Z,22.46
2018-08-20T06:46:30.214Z,22.57
2018-08-20T06:48:57.479Z,22.79
2018-08-20T06:51:24.702Z,22.71
2018-08-20T06:53:51.932Z,22.70
2018-08-20T06:56:19.187Z,22.75
2018-08-20T06:58:46.429Z,22.58
2018-08-20T07:01:13.647Z,22.49
2018-08-20T07:03:40.944Z,22.37
2018-08-20T07:06:08.213Z,22.29
2018-08-20T07:08:35.444Z,22.28
2018-08-20T07:11:02.724Z,22.35
2018-08-20T07:13:32.509Z,22.44
2018-08-20T07:15:59.828Z,22.64
2018-08-20T07:18:27.160Z,22.75
2018-08-20T07:20:54.472Z,22.99
2018-08-20T07:23:21.814Z,23.17
2018-08-20T07:25:49.058Z,23.48
2018-08-20T07:28:16.352Z,23.72
2018-08-20T07:30:43.647Z,23.86
2018-08-20T07:33:10.920Z,23.90
2018-08-20T07:35:38.249Z,23.97
2018-08-20T07:38:05.522Z,24.19
2018-08-20T07:40:33.741Z,24.55
2018-08-20T07:43:02.432Z,24.78
2018-08-20T07:45:30.966Z,24.63
2018-08-20T07:47:58.367Z,24.74
2018-08-20T07:50:25.597Z,25.22
2018-08-20T07:52:52.906Z,25.82
2018-08-20T07:55:20.159Z,26.11
2018-08-20T07:57:51.743Z,26.24
2018-08-20T08:00:24.807Z,26.54
2018-08-20T08:03:06.300Z,26.16
2018-08-20T08:05:33.569Z,26.34
2018-08-20T08:08:05.440Z,26.57
2018-08-20T08:10:47.097Z,26.73
2018-08-20T08:13:31.909Z,27.07
2018-08-20T08:15:59.137Z,27.26
2018-08-20T08:18:26.636Z,26.95
2018-08-20T08:20:53.920Z,26.46
2018-08-20T08:23:21.227Z,26.06
2018-08-20T08:25:48.510Z,26.23
2018-08-20T08:28:15.830Z,26.27
2018-08-20T08:30:43.361Z,26.26
2018-08-20T08:33:11.001Z,26.85
2018-08-20T08:35:38.247Z,27.18
2018-08-20T08:38:05.604Z,27.17
2018-08-20T08:40:32.826Z,26.86
2018-08-20T08:43:00.135Z,26.70
2018-08-20T08:45:27.365Z,26.64
2018-08-20T08:47:54.630Z,26.92
2018-08-20T08:50:21.886Z,27.04
2018-08-20T08:52:49.318Z,26.61
2018-08-20T08:55:16.653Z,26.40
2018-08-20T08:57:43.946Z,26.15
2018-08-20T09:00:14.559Z,26.05
2018-08-20T09:02:42.227Z,25.84
2018-08-20T09:05:10.393Z,25.60
2018-08-20T09:07:37.756Z,25.46
2018-08-20T09:10:12.068Z,25.29
2018-08-20T09:12:39.886Z,25.52
2018-08-20T09:15:13.664Z,25.46
2018-08-20T09:17:41.030Z,25.53
2018-08-20T09:20:10.376Z,25.37
2018-08-20T09:22:37.796Z,25.43
2018-08-20T09:25:05.831Z,25.52
2018-08-20T09:27:33.054Z,25.54
2018-08-20T09:30:00.400Z,25.36
2018-08-20T09:32:27.815Z,25.20
2018-08-20T09:34:55.053Z,25.03
2018-08-20T09:37:22.324Z,24.65
2018-08-20T09:39:49.812Z,24.77
2018-08-20T09:42:17.123Z,24.60
2018-08-20T09:44:44.507Z,24.21
2018-08-20T09:47:11.751Z,24.36
2018-08-20T09:49:39.041Z,24.52
2018-08-20T09:52:06.313Z,24.62
2018-08-20T09:54:33.590Z,24.44
2018-08-20T09:57:01.018Z,24.62
2018-08-20T09:59:28.432Z,24.74
2018-08-20T10:01:55.958Z,24.30
2018-08-20T10:04:23.348Z,24.09
2018-08-20T10:06:50.702Z,23.74
2018-08-20T10:09:18.236Z,23.60
2018-08-20T10:11:45.830Z,23.64
2018-08-20T10:14:13.461Z,23.74
2018-08-20T10:16:40.848Z,23.70
2018-08-20T10:19:08.304Z,23.76
2018-08-20T10:21:35.935Z,23.67
2018-08-20T10:24:03.830Z,23.63
2018-08-20T10:26:31.688Z,23.83
2018-08-20T10:28:59.209Z,23.95
2018-08-20T10:31:26.883Z,24.05
2018-08-20T10:33:54.296Z,24.15
2018-08-20T10:36:21.695Z,23.99
2018-08-20T10:38:49.314Z,24.00
2018-08-20T10:41:16.738Z,24.03
2018-08-20T10:43:44.159Z,24.17
2018-08-20T10:46:17.690Z,24.03
2018-08-20T10:48:45.100Z,24.07
2018-08-20T10:51:12.470Z,23.96
2018-08-20T10:53:39.811Z,23.99
2018-08-20T10:56:07.353Z,24.08
2018-08-20T10:58:34.739Z,24.07
2018-08-20T11:01:02.107Z,23.85
2018-08-20T11:03:30.119Z,23.71
2018-08-20T11:05:57.517Z,23.56
2018-08-20T11:08:26.278Z,23.64
2018-08-20T11:10:54.413Z,23.69
2018-08-20T11:13:21.770Z,23.64
2018-08-20T11:15:49.186Z,23.80
2018-08-20T11:18:17.295Z,23.85
2018-08-20T11:20:44.690Z,24.40
2018-08-20T11:23:12.124Z,24.75
2018-08-20T11:25:39.531Z,25.04
2018-08-20T11:28:06.933Z,24.98
2018-08-20T11:30:34.328Z,25.01
2018-08-20T11:33:02.476Z,25.32
2018-08-20T11:35:29.927Z,25.95
2018-08-20T11:37:57.284Z,26.08
2018-08-20T11:40:24.690Z,26.38
2018-08-20T11:42:52.286Z,26.50
2018-08-20T11:45:19.663Z,26.11
2018-08-20T11:47:47.482Z,26.01
2018-08-20T11:50:15.485Z,25.67
2018-08-20T11:52:43.770Z,25.67
2018-08-20T11:55:11.911Z,25.71
2018-08-20T11:57:39.312Z,25.70
2018-08-20T12:00:08.539Z,25.73
2018-08-20T12:02:36.029Z,26.08
2018-08-20T12:05:03.675Z,26.46
2018-08-20T12:07:31.171Z,26.30
2018-08-20T12:09:58.640Z,26.07
2018-08-20T12:12:26.115Z,26.45
2018-08-20T12:14:53.497Z,26.49
2018-08-20T12:17:20.989Z,26.62
2018-08-20T12:19:48.326Z,26.75
2018-08-20T12:22:15.887Z,26.67
2018-08-20T12:24:43.319Z,26.31
2018-08-20T12:27:12.644Z,26.55
2018-08-20T12:29:40.051Z,26.84
2018-08-20T12:32:07.474Z,26.95
2018-08-20T12:34:34.775Z,27.16
2018-08-20T12:37:02.190Z,27.55
2018-08-20T12:39:29.571Z,27.43
2018-08-20T12:41:56.959Z,27.13
2018-08-20T12:44:24.364Z,27.14
2018-08-20T12:46:51.796Z,27.09
2018-08-20T12:49:19.339Z,27.22
2018-08-20T12:51:46.797Z,27.30
2018-08-20T12:54:14.175Z,27.27
2018-08-20T12:56:42.047Z,27.44
2018-08-20T12:59:09.381Z,27.03
2018-08-20T13:01:36.867Z,27.41
2018-08-20T13:04:04.362Z,27.51
2018-08-20T13:06:32.391Z,27.58
2018-08-20T13:08:59.766Z,27.68
2018-08-20T13:11:27.179Z,27.62
2018-08-20T13:13:54.563Z,27.25
2018-08-20T13:16:22.069Z,27.11
2018-08-20T13:18:49.443Z,26.99
2018-08-20T13:21:16.792Z,26.95
2018-08-20T13:23:44.167Z,26.94
2018-08-20T13:26:11.640Z,26.82
2018-08-20T13:28:39.668Z,26.65
2018-08-20T13:31:07.069Z,26.38
2018-08-20T13:33:34.419Z,26.11
2018-08-20T13:36:01.858Z,26.05
2018-08-20T13:38:29.257Z,26.13
2018-08-20T13:40:56.880Z,26.04
2018-08-20T13:43:24.308Z,26.05
2018-08-20T13:45:51.729Z,25.97
2018-08-20T13:48:19.175Z,25.91
2018-08-20T13:50:46.643Z,25.97
2018-08-20T13:53:14.033Z,26.03
2018-08-20T13:55:41.474Z,26.06
2018-08-20T13:58:08.888Z,26.13
2018-08-20T14:00:36.673Z,26.35
2018-08-20T14:03:04.383Z,26.59
2018-08-20T14:05:31.919Z,26.59
2018-08-20T14:07:59.300Z,26.44
2018-08-20T14:10:26.694Z,26.45
2018-08-20T14:12:54.105Z,26.41
2018-08-20T14:15:21.433Z,26.45
2018-08-20T14:17:48.870Z,26.25
2018-08-20T14:20:16.196Z,26.51
2018-08-20T14:22:44.767Z,26.48
2018-08-20T14:25:12.295Z,26.56
2018-08-20T14:27:41.014Z,26.57
2018-08-20T14:30:11.725Z,26.63
2018-08-20T14:32:39.208Z,26.56
2018-08-20T14:35:07.531Z,26.53
2018-08-20T14:37:35.035Z,26.38
2018-08-20T14:40:03.569Z,26.40
2018-08-20T14:42:31.218Z,26.30
2018-08-20T14:44:58.535Z,26.33
2018-08-20T14:47:25.876Z,26.43
2018-08-20T14:49:53.315Z,26.17
2018-08-20T14:52:21.375Z,25.92
2018-08-20T14:54:48.900Z,25.91
2018-08-20T14:57:16.435Z,25.74
2018-08-20T14:59:43.847Z,25.70
2018-08-20T15:02:11.768Z,25.89
2018-08-20T15:04:39.287Z,25.93
2018-08-20T15:07:09.147Z,25.91
2018-08-20T15:09:36.633Z,25.95
2018-08-20T15:12:04.675Z,25.63
2018-08-20T15:14:32.824Z,25.52
2018-08-20T15:17:00.149Z,25.48
2018-08-20T15:19:27.535Z,25.35
2018-08-20T15:21:54.959Z,25.41
2018-08-20T15:24:23.595Z,25.53
2018-08-20T15:26:51.007Z,25.51
2018-08-20T15:29:19.223Z,25.43
2018-08-20T15:31:46.782Z,25.60
2018-08-20T15:34:14.314Z,25.80
2018-08-20T15:36:41.908Z,26.06
2018-08-20T15:39:09.901Z,26.05
2018-08-20T15:41:37.535Z,25.87
2018-08-20T15:44:05.563Z,25.64
2018-08-20T15:46:33.128Z,25.71
2018-08-20T15:49:00.657Z,25.82
2018-08-20T15:51:29.024Z,25.80
2018-08-20T15:53:56.697Z,25.75
2018-08-20T15:56:24.230Z,25.64
2018-08-20T15:58:52.803Z,25.51
2018-08-20T16:01:20.902Z,25.42
2018-08-20T16:03:48.303Z,25.42
2018-08-20T16:06:15.685Z,25.37
2018-08-20T16:08:44.113Z,25.26
2018-08-20T16:11:11.518Z,25.17
2018-08-20T16:13:38.942Z,25.19
2018-08-20T16:16:06.393Z,25.28
2018-08-20T16:18:33.880Z,25.20
2018-08-20T16:21:01.379Z,25.21
2018-08-20T16:23:28.901Z,25.15
2018-08-20T16:25:56.498Z,25.23
2018-08-20T16:28:23.824Z,25.19
2018-08-20T16:30:51.247Z,25.14
2018-08-20T16:33:18.683Z,25.06
2018-08-20T16:35:46.200Z,25.05
2018-08-20T16:38:13.610Z,25.04
2018-08-20T16:40:40.955Z,24.98
2018-08-20T16:43:08.409Z,24.89
2018-08-20T16:45:35.790Z,24.84
2018-08-20T16:48:03.203Z,24.79
2018-08-20T16:50:30.833Z,24.73
2018-08-20T16:52:59.139Z,24.73
2018-08-20T16:55:27.398Z,24.73
2018-08-20T16:57:54.787Z,24.72
2018-08-20T17:00:22.436Z,24.59
2018-08-20T17:02:49.907Z,24.55
2018-08-20T17:05:17.364Z,24.47
2018-08-20T17:07:44.711Z,24.40
2018-08-20T17:10:12.925Z,24.33
2018-08-20T17:12:40.667Z,24.30
2018-08-20T17:15:13.500Z,24.23
2018-08-20T17:17:41.242Z,24.25
2018-08-20T17:20:11.114Z,24.24
2018-08-20T17:22:38.734Z,24.30
2018-08-20T17:25:06.842Z,24.34
2018-08-20T17:27:34.425Z,24.32
2018-08-20T17:30:03.340Z,24.28
2018-08-20T17:32:31.701Z,24.25
2018-08-20T17:34:59.267Z,24.29
2018-08-20T17:37:27.361Z,24.25
2018-08-20T17:40:03.706Z,24.25
2018-08-20T17:42:31.864Z,24.17
2018-08-20T17:44:59.809Z,24.13
2018-08-20T17:47:27.931Z,24.14
2018-08-20T17:49:56.464Z,24.11
2018-08-20T17:52:27.398Z,24.01
2018-08-20T17:54:57.313Z,23.94
2018-08-20T17:57:24.698Z,23.96
2018-08-20T17:59:52.348Z,23.89
2018-08-20T18:02:21.978Z,23.90
2018-08-20T18:04:49.996Z,23.86
2018-08-20T18:07:18.458Z,23.84
2018-08-20T18:09:46.212Z,23.80
2018-08-20T18:12:13.627Z,23.79
2018-08-20T18:14:41.285Z,23.80
2018-08-20T18:17:09.407Z,23.79
2018-08-20T18:19:36.999Z,23.73
2018-08-20T18:22:04.983Z,23.72
2018-08-20T18:24:32.618Z,23.72
2018-08-20T18:27:00.113Z,23.67
2018-08-20T18:29:27.502Z,23.62
2018-08-20T18:31:57.615Z,23.58
2018-08-20T18:34:25.283Z,23.56
2018-08-20T18:36:53.157Z,23.48
2018-08-20T18:39:20.651Z,23.50
2018-08-20T18:42:07.217Z,23.46
2018-08-20T18:44:34.975Z,23.42
2018-08-20T18:47:02.716Z,23.37
2018-08-20T18:49:30.887Z,23.32
2018-08-20T18:52:14.199Z,23.33
2018-08-20T18:54:43.775Z,23.29
2018-08-20T18:57:16.867Z,23.20
2018-08-20T18:59:44.804Z,23.15
2018-08-20T19:02:21.292Z,23.15
2018-08-20T19:04:48.739Z,23.25
2018-08-20T19:07:16.316Z,23.32
2018-08-20T19:09:49.116Z,23.36
2018-08-20T19:12:16.762Z,23.36
2018-08-20T19:14:44.738Z,23.38
2018-08-20T19:17:23.886Z,23.31
2018-08-20T19:19:51.451Z,23.08
2018-08-20T19:22:24.463Z,23.04
2018-08-20T19:24:51.892Z,23.08
2018-08-20T19:27:19.296Z,23.01
2018-08-20T19:29:46.987Z,23.03
2018-08-20T19:32:14.366Z,23.03
2018-08-20T19:34:41.693Z,22.96
2018-08-20T19:37:09.147Z,22.91
2018-08-20T19:39:36.696Z,22.86
2018-08-20T19:42:04.794Z,22.84
2018-08-20T19:44:33.508Z,22.81
2018-08-20T19:47:01.019Z,22.85
2018-08-20T19:49:29.047Z,22.86
2018-08-20T19:51:56.480Z,22.82
2018-08-20T19:54:24.433Z,22.80
2018-08-20T19:56:51.810Z,22.82
2018-08-20T19:59:37.016Z,22.82
2018-08-20T20:02:05.409Z,22.85
2018-08-20T20:04:34.963Z,22.85
2018-08-20T20:07:03.836Z,22.79
2018-08-20T20:09:45.551Z,22.79
2018-08-20T20:12:13.075Z,22.75
2018-08-20T20:14:46.436Z,22.75
2018-08-20T20:17:15.050Z,22.73
2018-08-20T20:19:42.456Z,22.66
2018-08-20T20:22:14.064Z,22.63
2018-08-20T20:24:41.511Z,22.62
2018-08-20T20:27:10.511Z,22.61
2018-08-20T20:29:38.198Z,22.61
2018-08-20T20:32:05.497Z,22.61
2018-08-20T20:34:32.851Z,22.62
2018-08-20T20:37:01.084Z,22.57
2018-08-20T20:39:28.401Z,22.58
2018-08-20T20:41:55.710Z,22.58
2018-08-20T20:44:22.960Z,22.57
2018-08-20T20:46:50.248Z,22.56
2018-08-20T20:49:17.521Z,22.52
2018-08-20T20:51:44.838Z,22.45
2018-08-20T20:54:12.199Z,22.41
2018-08-20T20:56:39.650Z,22.39
2018-08-20T20:59:07.423Z,22.36
2018-08-20T21:01:34.699Z,22.33
2018-08-20T21:04:04.673Z,22.32
2018-08-20T21:06:46.214Z,22.30
2018-08-20T21:09:18.198Z,22.23
2018-08-20T21:11:45.518Z,22.21
2018-08-20T21:14:12.799Z,22.17
2018-08-20T21:16:39.998Z,22.10
2018-08-20T21:19:07.804Z,22.10
2018-08-20T21:21:35.050Z,22.06
2018-08-20T21:24:05.386Z,22.07
2018-08-20T21:26:32.674Z,22.04
2018-08-20T21:29:00.819Z,22.02
2018-08-20T21:31:29.827Z,21.99
2018-08-20T21:34:01.086Z,21.93
2018-08-20T21:36:28.387Z,21.85
2018-08-20T21:38:55.703Z,21.80
2018-08-20T21:41:25.595Z,21.71
2018-08-20T21:43:53.164Z,21.65
2018-08-20T21:46:20.541Z,21.58
2018-08-20T21:48:47.867Z,21.46
2018-08-20T21:51:20.175Z,21.36
2018-08-20T21:53:47.411Z,21.12
2018-08-20T21:56:14.646Z,21.02
2018-08-20T21:58:43.107Z,20.93
2018-08-20T22:01:11.960Z,20.89
2018-08-20T22:03:39.826Z,20.83
2018-08-20T22:06:07.179Z,20.90
2018-08-20T22:08:34.486Z,20.97
2018-08-20T22:11:02.048Z,21.03
2018-08-20T22:13:29.337Z,21.05
2018-08-20T22:16:12.750Z,21.07
2018-08-20T22:18:41.361Z,21.02
2018-08-20T22:21:15.071Z,21.00
2018-08-20T22:23:43.065Z,20.99
2018-08-20T22:26:16.051Z,20.98
2018-08-20T22:28:43.465Z,20.94
2018-08-20T22:31:10.864Z,20.92
2018-08-20T22:33:38.259Z,20.89
2018-08-20T22:36:06.392Z,20.83
2018-08-20T22:38:40.299Z,20.83
2018-08-20T22:41:07.940Z,20.84
2018-08-20T22:43:35.218Z,20.81
2018-08-20T22:46:02.470Z,20.72
2018-08-20T22:48:29.713Z,20.66
2018-08-20T22:51:16.937Z,20.65
2018-08-20T22:53:48.059Z,20.68
2018-08-20T22:56:22.500Z,20.61
2018-08-20T22:58:50.002Z,20.59
2018-08-20T23:01:17.505Z,20.53
2018-08-20T23:03:44.830Z,20.52
2018-08-20T23:06:12.127Z,20.50
2018-08-20T23:08:39.399Z,20.47
2018-08-20T23:11:06.692Z,20.46
2018-08-20T23:13:34.180Z,20.46
2018-08-20T23:16:01.607Z,20.53
2018-08-20T23:18:28.915Z,20.57
2018-08-20T23:20:56.195Z,20.53
2018-08-20T23:23:27.918Z,20.54
2018-08-20T23:26:00.727Z,20.54
2018-08-20T23:28:27.950Z,20.57
2018-08-20T23:30:59.782Z,20.62
2018-08-20T23:33:27.085Z,20.60
2018-08-20T23:35:54.379Z,20.59
2018-08-20T23:38:21.638Z,20.61
2018-08-20T23:40:48.892Z,20.57
2018-08-20T23:43:16.140Z,20.52
2018-08-20T23:45:43.458Z,20.49
2018-08-20T23:48:10.766Z,20.45
2018-08-20T23:50:38.307Z,20.40
2018-08-20T23:53:05.590Z,20.42
2018-08-20T23:55:32.848Z,20.45
2018-08-20T23:58:00.082Z,20.43
